createdAt,value
2023-03-22T00:02:21.087Z,72.10
2023-03-22T00:04:48.367Z,68.90
2023-03-22T00:07:15.348Z,74.20
2023-03-22T00:09:42.509Z,66.80
2023-03-22T00:12:11.366Z,68.60
2023-03-22T00:14:41.336Z,71.20
2023-03-22T00:17:07.987Z,71.20
2023-03-22T00:19:35.066Z,69.70
2023-03-22T00:22:03.091Z,73.80
2023-03-22T00:24:34.352Z,69.60
2023-03-22T00:27:01.675Z,73.20
2023-03-22T00:29:28.917Z,74.40
2023-03-22T00:31:56.229Z,75.20
2023-03-22T00:34:23.047Z,71.90
2023-03-22T00:36:51.310Z,68.40
2023-03-22T00:39:19.032Z,69.60
2023-03-22T00:41:47.235Z,64.80
2023-03-22T00:44:14.767Z,66.10
2023-03-22T00:46:42.098Z,66.90
2023-03-22T00:49:09.214Z,69.50
2023-03-22T00:51:35.875Z,66.00
2023-03-22T00:54:04.009Z,63.50
2023-03-22T00:56:33.330Z,66.30
2023-03-22T00:59:06.515Z,64.20
2023-03-22T01:01:38.657Z,63.50
2023-03-22T01:04:05.994Z,59.80
2023-03-22T01:06:33.602Z,62.90
2023-03-22T01:09:01.169Z,63.30
2023-03-22T01:11:28.637Z,57.40
2023-03-22T01:13:56.629Z,56.80
2023-03-22T01:16:24.752Z,55.30
2023-03-22T01:18:51.786Z,55.80
2023-03-22T01:21:18.937Z,55.50
2023-03-22T01:23:46.252Z,54.90
2023-03-22T01:26:13.504Z,53.20
2023-03-22T01:28:40.797Z,51.70
2023-03-22T01:31:07.998Z,51.80
2023-03-22T01:33:35.312Z,47.90
2023-03-22T01:36:03.618Z,52.60
2023-03-22T01:38:32.659Z,48.40
2023-03-22T01:41:01.859Z,46.60
2023-03-22T01:43:31.564Z,48.50
2023-03-22T01:45:59.592Z,48.50
2023-03-22T01:48:36.895Z,49.00
2023-03-22T01:51:08.300Z,48.10
2023-03-22T01:53:48.454Z,48.50
2023-03-22T01:56:17.020Z,47.40
2023-03-22T01:58:44.208Z,47.60
2023-03-22T02:01:11.839Z,47.40
2023-03-22T02:04:14.871Z,46.20
2023-03-22T02:06:41.840Z,50.20
2023-03-22T02:09:14.062Z,44.80
2023-03-22T02:11:45.681Z,47.00
2023-03-22T02:14:45.349Z,47.90
2023-03-22T02:18:07.264Z,47.00
2023-03-22T02:20:54.608Z,44.30
2023-03-22T02:23:54.006Z,47.00
2023-03-22T02:26:58.899Z,42.10
2023-03-22T02:29:48.703Z,43.60
2023-03-22T02:32:34.449Z,44.40
2023-03-22T02:35:20.951Z,44.30
2023-03-22T02:38:13.992Z,45.10
2023-03-22T02:40:55.685Z,43.40
2023-03-22T02:43:37.996Z,43.30
2023-03-22T02:46:07.167Z,45.80
2023-03-22T02:48:40.264Z,47.10
2023-03-22T02:51:11.408Z,46.90
2023-03-22T02:53:44.175Z,44.70
2023-03-22T02:56:14.265Z,43.90
2023-03-22T02:58:51.384Z,44.30
2023-03-22T03:01:30.156Z,43.60
2023-03-22T03:04:00.703Z,43.70
2023-03-22T03:06:30.603Z,48.80
2023-03-22T03:08:57.842Z,44.20
2023-03-22T03:11:25.991Z,45.60
2023-03-22T03:13:53.293Z,41.70
2023-03-22T03:16:21.533Z,45.80
2023-03-22T03:19:07.373Z,43.90
2023-03-22T03:21:53.067Z,44.40
2023-03-22T03:24:32.557Z,60.10
2023-03-22T03:27:25.147Z,43.30
2023-03-22T03:30:01.379Z,46.20
2023-03-22T03:32:34.934Z,44.30
2023-03-22T03:35:06.619Z,44.80
2023-03-22T03:37:41.669Z,45.00
2023-03-22T03:40:20.832Z,44.50
2023-03-22T03:42:49.954Z,45.20
2023-03-22T03:45:16.898Z,44.00
2023-03-22T03:47:46.143Z,45.30
2023-03-22T03:50:15.201Z,44.80
2023-03-22T03:52:44.528Z,48.60
2023-03-22T03:55:11.584Z,47.00
2023-03-22T03:57:39.845Z,45.00
2023-03-22T04:00:08.807Z,44.00
2023-03-22T04:02:46.086Z,43.80
2023-03-22T04:05:26.100Z,40.80
2023-03-22T04:07:52.962Z,42.50
2023-03-22T04:10:19.926Z,41.70
2023-03-22T04:12:49.233Z,43.60
2023-03-22T04:15:18.213Z,47.00
2023-03-22T04:17:48.120Z,48.90
2023-03-22T04:20:16.462Z,50.40
2023-03-22T04:22:46.228Z,45.80
2023-03-22T04:25:18.690Z,56.40
2023-03-22T04:27:55.180Z,51.90
2023-03-22T04:30:24.019Z,54.60
2023-03-22T04:33:11.149Z,52.10
2023-03-22T04:35:58.776Z,50.10
2023-03-22T04:38:33.485Z,48.40
2023-03-22T04:41:00.760Z,45.00
2023-03-22T04:43:50.365Z,46.90
2023-03-22T04:46:20.679Z,48.50
2023-03-22T04:48:52.901Z,45.20
2023-03-22T04:51:20.313Z,46.10
2023-03-22T04:53:58.880Z,51.30
2023-03-22T04:56:25.643Z,48.00
2023-03-22T04:58:52.615Z,47.90
2023-03-22T05:01:22.749Z,49.00
2023-03-22T05:03:56.065Z,45.80
2023-03-22T05:06:22.828Z,48.90
2023-03-22T05:09:00.414Z,48.30
2023-03-22T05:11:27.637Z,47.80
2023-03-22T05:14:12.028Z,49.50
2023-03-22T05:16:41.187Z,44.60
2023-03-22T05:19:13.236Z,45.10
2023-03-22T05:24:10.585Z,42.90
2023-03-22T05:26:41.652Z,44.10
2023-03-22T05:29:10.440Z,43.10
2023-03-22T05:32:00.105Z,40.50
2023-03-22T05:34:34.730Z,42.50
2023-03-22T05:37:06.040Z,40.90
2023-03-22T05:39:55.022Z,42.60
2023-03-22T05:42:25.837Z,40.40
2023-03-22T05:44:52.560Z,41.90
2023-03-22T05:47:20.445Z,41.00
2023-03-22T05:50:00.836Z,42.90
2023-03-22T05:52:28.174Z,39.80
2023-03-22T05:55:13.091Z,43.00
2023-03-22T05:57:44.261Z,42.30
2023-03-22T06:00:15.659Z,44.90
2023-03-22T06:02:56.093Z,42.50
2023-03-22T06:05:23.652Z,38.90
2023-03-22T06:07:51.539Z,40.90
2023-03-22T06:10:20.659Z,38.30
2023-03-22T06:12:54.824Z,39.30
2023-03-22T06:15:27.407Z,37.00
2023-03-22T06:18:03.863Z,35.90
2023-03-22T06:20:36.182Z,39.40
2023-03-22T06:23:08.994Z,35.80
2023-03-22T06:25:36.136Z,37.00
2023-03-22T06:28:03.379Z,34.60
2023-03-22T06:30:30.918Z,33.90
2023-03-22T06:33:21.081Z,33.50
2023-03-22T06:35:53.055Z,35.30
2023-03-22T06:38:27.957Z,38.80
2023-03-22T06:40:55.738Z,32.90
2023-03-22T06:43:23.947Z,34.50
2023-03-22T06:45:52.155Z,31.80
2023-03-22T06:48:23.107Z,33.60
2023-03-22T06:50:59.065Z,34.10
2023-03-22T06:53:31.650Z,32.40
2023-03-22T06:55:58.501Z,34.90
2023-03-22T06:58:26.502Z,31.10
2023-03-22T07:00:55.645Z,32.70
2023-03-22T07:03:26.416Z,34.10
2023-03-22T07:06:04.261Z,31.80
2023-03-22T07:08:34.941Z,37.50
2023-03-22T07:11:07.133Z,34.60
2023-03-22T07:13:36.217Z,35.30
2023-03-22T07:16:11.501Z,31.80
2023-03-22T07:19:01.761Z,25.20
2023-03-22T07:21:29.920Z,36.90
2023-03-22T07:23:59.772Z,33.10
2023-03-22T07:26:30.039Z,33.00
2023-03-22T07:29:04.200Z,37.10
2023-03-22T07:31:36.027Z,33.70
2023-03-22T07:34:06.267Z,31.60
2023-03-22T07:36:44.118Z,30.90
2023-03-22T07:39:17.177Z,36.40
2023-03-22T07:41:47.607Z,32.40
2023-03-22T07:44:24.864Z,31.20
2023-03-22T07:47:07.598Z,32.90
2023-03-22T07:50:00.771Z,29.30
2023-03-22T07:52:39.369Z,29.10
2023-03-22T07:57:57.210Z,30.80
2023-03-22T08:00:30.781Z,34.10
2023-03-22T08:03:27.333Z,35.60
2023-03-22T08:06:10.269Z,33.40
2023-03-22T08:08:40.573Z,32.40
2023-03-22T08:11:12.009Z,34.70
2023-03-22T08:13:45.147Z,32.20
2023-03-22T08:16:16.212Z,28.30
2023-03-22T08:18:47.065Z,30.00
2023-03-22T08:21:17.491Z,29.40
2023-03-22T08:23:49.925Z,34.50
2023-03-22T08:26:49.497Z,29.10
2023-03-22T08:29:35.918Z,29.80
2023-03-22T08:32:05.951Z,29.80
2023-03-22T08:34:38.914Z,27.80
2023-03-22T08:37:08.150Z,31.00
2023-03-22T08:39:38.780Z,27.20
2023-03-22T08:42:37.736Z,28.70
2023-03-22T08:45:10.938Z,29.40
2023-03-22T08:47:50.763Z,30.30
2023-03-22T08:50:20.355Z,27.30
2023-03-22T08:53:03.097Z,27.10
2023-03-22T08:55:40.506Z,34.50
2023-03-22T08:58:20.464Z,27.80
2023-03-22T09:01:21.270Z,26.70
2023-03-22T09:03:56.564Z,27.10
2023-03-22T09:06:28.249Z,28.60
2023-03-22T09:09:00.682Z,27.90
2023-03-22T09:11:29.442Z,27.40
2023-03-22T09:13:57.715Z,24.10
2023-03-22T09:16:29.165Z,26.00
2023-03-22T09:19:02.046Z,26.90
2023-03-22T09:21:32.374Z,29.10
2023-03-22T09:24:17.407Z,26.40
2023-03-22T09:26:51.409Z,29.70
2023-03-22T09:29:22.906Z,28.00
2023-03-22T09:31:53.190Z,25.10
2023-03-22T09:34:23.117Z,27.00
2023-03-22T09:36:52.174Z,31.30
2023-03-22T09:39:22.236Z,30.10
2023-03-22T09:41:53.930Z,26.80
2023-03-22T09:44:36.030Z,27.10
2023-03-22T09:47:04.892Z,26.50
2023-03-22T09:49:52.601Z,25.40
2023-03-22T09:52:20.257Z,28.30
2023-03-22T09:54:47.184Z,24.50
2023-03-22T09:57:23.969Z,23.30
2023-03-22T10:00:13.995Z,27.10
2023-03-22T10:02:58.978Z,29.00
2023-03-22T10:05:35.260Z,28.80
2023-03-22T10:08:24.329Z,30.10
2023-03-22T10:10:52.241Z,25.00
2023-03-22T10:13:46.613Z,25.00
2023-03-22T10:16:18.968Z,21.50
2023-03-22T10:18:49.188Z,19.50
2023-03-22T10:22:32.882Z,20.10
2023-03-22T10:29:50.727Z,19.60
2023-03-22T10:32:57.590Z,18.60
2023-03-22T10:35:25.035Z,16.10
2023-03-22T10:37:51.794Z,15.70
2023-03-22T10:40:20.612Z,17.70
2023-03-22T10:42:52.629Z,21.90
2023-03-22T10:45:19.593Z,20.60
2023-03-22T10:48:05.033Z,17.90
2023-03-22T10:53:23.048Z,11.80
2023-03-22T10:55:50.375Z,17.90
2023-03-22T10:58:21.337Z,20.60
2023-03-22T11:00:50.042Z,18.10
2023-03-22T11:03:36.157Z,21.10
2023-03-22T11:06:17.147Z,17.50
2023-03-22T11:08:49.000Z,15.10
2023-03-22T11:11:38.328Z,18.20
2023-03-22T11:14:08.014Z,18.50
2023-03-22T11:17:06.068Z,20.50
2023-03-22T11:19:34.024Z,16.10
2023-03-22T11:22:04.572Z,17.50
2023-03-22T11:24:32.533Z,15.90
2023-03-22T11:27:05.216Z,18.20
2023-03-22T11:29:49.123Z,17.40
2023-03-22T11:32:28.484Z,17.30
2023-03-22T11:35:19.752Z,18.30
2023-03-22T11:37:51.317Z,18.90
2023-03-22T11:40:21.924Z,18.90
2023-03-22T11:42:51.691Z,18.80
2023-03-22T11:45:27.515Z,19.00
2023-03-22T11:50:29.650Z,17.70
2023-03-22T11:52:56.602Z,19.50
2023-03-22T11:55:24.070Z,17.90
2023-03-22T11:57:51.221Z,17.80
2023-03-22T12:00:20.871Z,18.50
2023-03-22T12:02:55.434Z,19.10
2023-03-22T12:05:28.102Z,18.60
2023-03-22T12:08:18.633Z,19.50
2023-03-22T12:10:48.455Z,22.40
2023-03-22T12:13:23.089Z,20.90
2023-03-22T12:15:56.078Z,20.40
2023-03-22T12:18:41.143Z,19.60
2023-03-22T12:21:09.439Z,27.60
2023-03-22T12:23:37.441Z,19.30
2023-03-22T12:26:11.444Z,20.60
2023-03-22T12:29:02.505Z,20.40
2023-03-22T12:31:31.623Z,17.30
2023-03-22T12:34:02.474Z,17.70
2023-03-22T12:36:42.445Z,19.20
2023-03-22T12:39:26.388Z,18.40
2023-03-22T12:41:53.592Z,19.00
2023-03-22T12:44:28.814Z,17.80
2023-03-22T12:46:56.883Z,18.70
2023-03-22T12:49:30.557Z,20.60
2023-03-22T12:52:10.407Z,17.40
2023-03-22T12:54:37.242Z,20.40
2023-03-22T12:57:04.108Z,19.40
2023-03-22T12:59:32.570Z,20.80
2023-03-22T13:02:17.805Z,21.00
2023-03-22T13:04:51.794Z,22.00
2023-03-22T13:07:30.566Z,21.70
2023-03-22T13:10:00.428Z,23.70
2023-03-22T13:12:41.659Z,22.20
2023-03-22T13:15:56.337Z,23.40
2023-03-22T13:18:35.161Z,22.50
2023-03-22T13:21:31.184Z,21.00
2023-03-22T13:24:00.810Z,18.00
2023-03-22T13:26:34.610Z,17.90
2023-03-22T13:31:42.929Z,16.00
2023-03-22T13:34:15.538Z,18.20
2023-03-22T13:36:49.145Z,18.20
2023-03-22T13:39:15.983Z,17.70
2023-03-22T13:41:45.505Z,17.20
2023-03-22T13:44:25.790Z,18.60
2023-03-22T13:46:52.800Z,15.80
2023-03-22T13:49:53.586Z,16.40
2023-03-22T13:52:35.186Z,16.40
2023-03-22T13:55:02.646Z,20.60
2023-03-22T14:01:49.076Z,18.80
2023-03-22T14:04:22.006Z,17.40
2023-03-22T14:06:54.516Z,18.50
2023-03-22T14:09:31.156Z,16.00
2023-03-22T14:12:49.892Z,16.50
2023-03-22T14:15:30.767Z,16.50
2023-03-22T14:18:07.125Z,16.00
2023-03-22T14:20:35.625Z,16.80
